createdAt,value
2023-05-08T00:01:10.527Z,0.73
2023-05-08T00:03:40.122Z,0.95
2023-05-08T00:06:10.155Z,0.60
2023-05-08T00:08:42.261Z,0.63
2023-05-08T00:11:11.631Z,0.30
2023-05-08T00:13:41.845Z,0.60
2023-05-08T00:16:12.015Z,0.50
2023-05-08T00:18:41.916Z,0.60
2023-05-08T00:21:11.315Z,0.68
2023-05-08T00:23:42.158Z,0.50
2023-05-08T00:26:11.639Z,0.80
2023-05-08T00:28:41.452Z,0.50
2023-05-08T00:31:10.998Z,0.55
2023-05-08T00:33:40.433Z,0.77
2023-05-08T00:36:10.418Z,0.65
2023-05-08T00:38:41.214Z,0.65
2023-05-08T00:41:10.679Z,1.20
2023-05-08T00:43:40.447Z,2.40
2023-05-08T00:49:45.276Z,1.30
2023-05-08T00:52:15.428Z,1.17
2023-05-08T00:54:45.287Z,1.10
2023-05-08T00:57:15.236Z,1.05
2023-05-08T00:59:47.455Z,1.10
2023-05-08T01:02:17.481Z,1.35
2023-05-08T01:04:49.975Z,1.00
2023-05-08T01:07:20.734Z,0.63
2023-05-08T01:09:50.902Z,1.02
2023-05-08T01:12:28.507Z,0.65
2023-05-08T01:15:17.194Z,0.50
2023-05-08T01:18:03.543Z,1.08
2023-05-08T01:20:48.120Z,0.73
2023-05-08T01:24:20.100Z,0.55
2023-05-08T01:27:37.122Z,0.50
2023-05-08T01:30:57.335Z,0.40
2023-05-08T01:33:37.414Z,0.47
2023-05-08T01:36:25.608Z,0.82
2023-05-08T01:39:06.105Z,0.63
2023-05-08T01:41:38.602Z,0.82
2023-05-08T01:44:17.327Z,0.50
2023-05-08T01:46:51.728Z,0.50
2023-05-08T01:49:29.368Z,0.55
2023-05-08T01:52:04.768Z,0.82
2023-05-08T01:54:52.093Z,0.50
2023-05-08T01:57:26.013Z,0.60
2023-05-08T01:59:59.794Z,0.63
2023-05-08T02:02:32.948Z,0.50
2023-05-08T02:05:07.031Z,0.57
2023-05-08T02:07:39.063Z,0.50
2023-05-08T02:10:11.071Z,0.43
2023-05-08T02:12:42.614Z,0.80
2023-05-08T02:15:14.981Z,0.45
2023-05-08T02:17:46.914Z,0.70
2023-05-08T02:20:19.121Z,0.52
2023-05-08T02:22:52.925Z,0.60
2023-05-08T02:25:22.968Z,0.50
2023-05-08T02:27:55.916Z,0.60
2023-05-08T02:30:27.713Z,0.60
2023-05-08T02:33:00.709Z,0.85
2023-05-08T02:35:33.543Z,0.65
2023-05-08T02:38:04.797Z,0.73
2023-05-08T02:40:35.268Z,0.35
2023-05-08T02:43:04.870Z,0.60
2023-05-08T02:45:41.848Z,0.50
2023-05-08T02:48:15.788Z,0.63
2023-05-08T02:50:56.744Z,0.50
2023-05-08T02:53:34.783Z,0.50
2023-05-08T02:56:12.450Z,0.65
2023-05-08T02:58:47.692Z,0.65
2023-05-08T03:01:26.365Z,0.55
2023-05-08T03:04:05.217Z,0.70
2023-05-08T03:06:43.505Z,0.80
2023-05-08T03:09:22.242Z,0.60
2023-05-08T03:11:59.178Z,1.05
2023-05-08T03:14:31.003Z,0.55
2023-05-08T03:17:02.933Z,0.47
2023-05-08T03:19:39.786Z,0.80
2023-05-08T03:22:12.796Z,1.25
2023-05-08T03:24:45.355Z,0.68
2023-05-08T03:27:16.229Z,0.70
2023-05-08T03:29:47.900Z,0.63
2023-05-08T03:32:18.801Z,0.82
2023-05-08T03:34:48.964Z,0.63
2023-05-08T03:37:20.554Z,0.50
2023-05-08T03:39:50.170Z,0.50
2023-05-08T03:42:22.635Z,1.02
2023-05-08T03:44:54.296Z,0.60
2023-05-08T03:50:44.902Z,0.88
2023-05-08T03:53:14.433Z,0.95
2023-05-08T03:55:43.969Z,1.45
2023-05-08T03:58:21.264Z,1.00
2023-05-08T04:01:03.723Z,0.98
2023-05-08T04:03:51.391Z,1.35
2023-05-08T04:06:42.057Z,1.60
2023-05-08T04:09:25.052Z,1.05
2023-05-08T04:12:04.072Z,1.00
2023-05-08T04:14:42.557Z,0.93
2023-05-08T04:17:16.229Z,0.77
2023-05-08T04:19:49.399Z,0.70
2023-05-08T04:22:23.653Z,0.60
2023-05-08T04:24:54.725Z,0.60
2023-05-08T04:27:24.608Z,0.95
2023-05-08T04:29:53.908Z,0.82
2023-05-08T04:32:24.374Z,0.65
2023-05-08T04:34:53.889Z,0.73
2023-05-08T04:37:31.572Z,0.90
2023-05-08T04:40:01.447Z,0.75
2023-05-08T04:42:36.839Z,1.20
2023-05-08T04:45:08.139Z,1.33
2023-05-08T04:47:37.923Z,0.90
2023-05-08T04:50:08.543Z,0.95
2023-05-08T04:52:39.665Z,0.57
2023-05-08T04:55:11.606Z,1.17
2023-05-08T04:57:41.367Z,0.65
2023-05-08T05:00:12.983Z,0.68
2023-05-08T05:02:42.487Z,0.65
2023-05-08T05:05:12.643Z,1.20
2023-05-08T05:07:43.844Z,0.85
2023-05-08T05:10:13.549Z,0.77
2023-05-08T05:12:43.184Z,0.95
2023-05-08T05:15:14.085Z,1.52
2023-05-08T05:17:43.951Z,0.45
2023-05-08T05:20:15.269Z,0.40
2023-05-08T05:22:46.155Z,0.60
2023-05-08T05:25:16.147Z,0.40
2023-05-08T05:27:45.698Z,0.60
2023-05-08T05:30:15.809Z,0.93
2023-05-08T05:32:45.294Z,0.55
2023-05-08T05:35:14.893Z,0.70
2023-05-08T05:37:45.998Z,0.55
2023-05-08T05:40:15.817Z,0.73
2023-05-08T05:42:51.354Z,0.70
2023-05-08T05:45:21.654Z,0.73
2023-05-08T05:47:54.413Z,0.60
2023-05-08T05:50:24.222Z,0.30
2023-05-08T05:52:55.315Z,0.40
2023-05-08T05:55:24.758Z,1.10
2023-05-08T05:57:54.267Z,0.47
2023-05-08T06:00:24.204Z,0.77
2023-05-08T06:02:53.915Z,0.80
2023-05-08T06:05:23.593Z,0.50
2023-05-08T06:07:54.457Z,0.68
2023-05-08T06:10:24.348Z,0.80
2023-05-08T06:12:53.850Z,0.52
2023-05-08T06:15:24.334Z,0.52
2023-05-08T06:17:54.674Z,0.80
2023-05-08T06:20:24.984Z,0.50
2023-05-08T06:22:57.442Z,0.80
2023-05-08T06:25:28.396Z,0.40
2023-05-08T06:27:58.036Z,0.50
2023-05-08T06:30:27.582Z,0.65
2023-05-08T06:32:57.527Z,0.50
2023-05-08T06:35:27.065Z,0.73
2023-05-08T06:37:58.006Z,0.57
2023-05-08T06:40:27.515Z,0.70
2023-05-08T06:42:57.116Z,0.60
2023-05-08T06:45:26.578Z,0.63
2023-05-08T06:50:44.521Z,0.70
2023-05-08T06:53:13.953Z,0.70
2023-05-08T06:55:45.637Z,0.52
2023-05-08T06:58:15.478Z,0.40
2023-05-08T07:00:46.363Z,0.50
2023-05-08T07:03:16.179Z,0.50
2023-05-08T07:05:47.203Z,0.60
2023-05-08T07:08:16.663Z,0.60
2023-05-08T07:10:46.562Z,0.40
2023-05-08T07:13:20.290Z,0.65
2023-05-08T07:15:49.918Z,0.50
2023-05-08T07:18:19.791Z,0.73
2023-05-08T07:20:50.816Z,0.77
2023-05-08T07:23:20.369Z,0.50
2023-05-08T07:25:49.926Z,0.60
2023-05-08T07:28:19.290Z,0.50
2023-05-08T07:30:48.815Z,0.60
2023-05-08T07:33:18.293Z,0.77
2023-05-08T07:35:49.676Z,0.50
2023-05-08T07:38:19.120Z,0.60
2023-05-08T07:40:49.370Z,0.80
2023-05-08T07:43:18.828Z,0.65
2023-05-08T07:45:48.542Z,0.45
2023-05-08T07:48:18.188Z,0.60
2023-05-08T07:50:47.673Z,0.43
2023-05-08T07:53:18.756Z,0.47
2023-05-08T07:55:48.204Z,0.40
2023-05-08T07:58:17.766Z,0.57
2023-05-08T08:00:47.206Z,0.73
2023-05-08T08:03:17.688Z,0.40
2023-05-08T08:05:48.014Z,0.70
2023-05-08T08:08:18.897Z,0.73
2023-05-08T08:10:48.350Z,0.82
2023-05-08T08:13:19.217Z,0.70
2023-05-08T08:15:48.589Z,0.60
2023-05-08T08:18:18.198Z,0.55
2023-05-08T08:20:47.688Z,0.55
2023-05-08T08:23:18.583Z,0.88
2023-05-08T08:25:48.045Z,1.10
2023-05-08T08:28:18.255Z,0.95
2023-05-08T08:30:47.856Z,0.65
2023-05-08T08:33:19.103Z,0.70
2023-05-08T08:35:48.765Z,1.20
2023-05-08T08:38:19.686Z,0.70
2023-05-08T08:40:49.101Z,0.63
2023-05-08T08:43:18.627Z,0.65
2023-05-08T08:45:48.680Z,0.82
2023-05-08T08:48:19.283Z,0.70
2023-05-08T08:50:53.533Z,0.70
2023-05-08T08:53:32.492Z,0.73
2023-05-08T08:56:04.607Z,0.60
2023-05-08T08:58:40.026Z,0.85
2023-05-08T09:01:12.117Z,0.80
2023-05-08T09:03:43.115Z,3.20
2023-05-08T09:06:12.964Z,3.72
2023-05-08T09:08:44.146Z,0.88
2023-05-08T09:11:13.733Z,0.80
2023-05-08T09:13:43.259Z,0.90
2023-05-08T09:16:12.657Z,4.30
2023-05-08T09:18:42.387Z,1.00
2023-05-08T09:21:11.930Z,0.80
2023-05-08T09:23:58.218Z,0.85
2023-05-08T09:26:36.329Z,0.88
2023-05-08T09:29:14.325Z,1.20
2023-05-08T09:31:46.124Z,1.08
2023-05-08T09:34:28.619Z,1.13
2023-05-08T09:36:58.844Z,1.42
2023-05-08T09:39:30.796Z,0.80
2023-05-08T09:42:01.300Z,0.93
2023-05-08T09:44:31.063Z,1.00
2023-05-08T09:50:44.874Z,0.65
2023-05-08T09:53:14.332Z,1.00
2023-05-08T09:55:51.047Z,0.80
2023-05-08T09:58:20.561Z,0.70
2023-05-08T10:00:50.260Z,0.90
2023-05-08T10:03:20.109Z,0.77
2023-05-08T10:05:51.036Z,1.13
2023-05-08T10:08:23.400Z,1.08
2023-05-08T10:10:53.569Z,0.95
2023-05-08T10:13:23.179Z,2.15
2023-05-08T10:15:57.067Z,3.75
2023-05-08T10:18:30.596Z,1.00
2023-05-08T10:21:06.866Z,1.10
2023-05-08T10:23:37.058Z,1.00
2023-05-08T10:26:14.627Z,0.70
2023-05-08T10:28:50.425Z,0.70
2023-05-08T10:31:20.925Z,1.00
2023-05-08T10:33:54.417Z,1.33
2023-05-08T10:36:28.063Z,0.90
2023-05-08T10:39:00.816Z,0.88
2023-05-08T10:41:31.484Z,0.80
2023-05-08T10:44:03.572Z,1.00
2023-05-08T10:49:18.403Z,0.85
2023-05-08T10:52:08.442Z,1.17
2023-05-08T10:55:04.800Z,1.35
2023-05-08T10:57:34.547Z,0.63
2023-05-08T11:00:04.287Z,1.40
2023-05-08T11:02:37.283Z,0.93
2023-05-08T11:05:20.720Z,1.13
2023-05-08T11:07:59.389Z,0.68
2023-05-08T11:10:33.551Z,0.93
2023-05-08T11:13:04.299Z,1.10
2023-05-08T11:15:41.300Z,0.98
2023-05-08T11:18:12.507Z,1.00
2023-05-08T11:20:43.717Z,0.82
2023-05-08T11:23:29.761Z,0.90
2023-05-08T11:26:04.012Z,1.25
2023-05-08T11:28:36.105Z,0.90
2023-05-08T11:33:38.309Z,0.75
2023-05-08T11:36:19.488Z,1.00
2023-05-08T11:39:12.867Z,1.23
2023-05-08T11:41:42.443Z,1.02
2023-05-08T11:44:22.620Z,1.50
2023-05-08T11:46:54.876Z,1.00
2023-05-08T11:49:29.590Z,1.00
2023-05-08T11:52:01.772Z,1.48
2023-05-08T11:54:33.794Z,0.63
2023-05-08T11:57:03.325Z,0.85
2023-05-08T11:59:38.361Z,2.58
2023-05-08T12:02:09.509Z,0.95
2023-05-08T12:04:49.181Z,0.90
2023-05-08T12:07:18.979Z,1.05
2023-05-08T12:09:50.449Z,0.98
2023-05-08T12:12:19.904Z,1.83
2023-05-08T12:14:52.502Z,1.40
2023-05-08T12:17:22.271Z,1.40
2023-05-08T12:20:04.385Z,1.23
2023-05-08T12:22:34.091Z,1.08
2023-05-08T12:25:06.623Z,1.00
2023-05-08T12:27:36.308Z,0.85
2023-05-08T12:30:10.587Z,1.83
2023-05-08T12:32:42.182Z,1.05
2023-05-08T12:35:14.689Z,1.30
2023-05-08T12:37:44.383Z,1.67
2023-05-08T12:40:29.196Z,2.28
2023-05-08T12:42:59.151Z,2.85
2023-05-08T12:45:31.087Z,2.40
2023-05-08T12:50:47.287Z,2.65
2023-05-08T12:53:18.540Z,2.63
2023-05-08T12:55:55.724Z,3.47
2023-05-08T12:58:29.124Z,3.00
2023-05-08T13:01:13.538Z,2.40
2023-05-08T13:03:44.760Z,2.90
2023-05-08T13:06:25.051Z,2.15
2023-05-08T13:08:56.881Z,2.05
2023-05-08T13:11:35.616Z,1.63
2023-05-08T13:14:05.124Z,1.63
2023-05-08T13:16:45.203Z,1.40
2023-05-08T13:19:15.899Z,1.50
2023-05-08T13:21:48.172Z,1.85
2023-05-08T13:26:47.588Z,2.10
2023-05-08T13:29:17.512Z,2.22
2023-05-08T13:31:46.984Z,2.45
2023-05-08T13:34:16.542Z,2.10
2023-05-08T13:36:47.568Z,1.98
2023-05-08T13:39:17.032Z,2.30
2023-05-08T13:41:46.471Z,2.10
2023-05-08T13:44:15.840Z,2.65
2023-05-08T13:46:45.492Z,1.92
2023-05-08T13:49:14.916Z,1.35
2023-05-08T13:51:47.244Z,2.17
2023-05-08T13:54:19.027Z,1.50
2023-05-08T13:56:50.077Z,1.90
2023-05-08T13:59:19.681Z,1.67
2023-05-08T14:01:49.166Z,1.60
2023-05-08T14:04:19.447Z,1.30
2023-05-08T14:06:51.454Z,1.52
2023-05-08T14:09:21.114Z,1.40
2023-05-08T14:11:50.507Z,1.15
2023-05-08T14:14:19.993Z,1.70
2023-05-08T14:16:51.247Z,1.40
2023-05-08T14:19:20.832Z,1.30
2023-05-08T14:21:51.759Z,1.50
2023-05-08T14:24:21.216Z,1.42
2023-05-08T14:26:50.708Z,1.38
2023-05-08T14:29:21.650Z,1.20
2023-05-08T14:31:51.312Z,0.98
2023-05-08T14:34:20.793Z,0.82
2023-05-08T14:36:51.651Z,0.70
2023-05-08T14:39:21.168Z,0.63
2023-05-08T14:42:14.319Z,0.47
2023-05-08T14:44:40.384Z,0.43
2023-05-08T14:47:09.867Z,0.40
2023-05-08T14:49:39.542Z,0.60
2023-05-08T14:52:10.444Z,0.73
2023-05-08T14:54:40.041Z,0.32
2023-05-08T14:57:09.641Z,0.35
2023-05-08T14:59:49.011Z,0.30
2023-05-08T15:02:22.058Z,0.22
2023-05-08T15:04:51.798Z,0.35
2023-05-08T15:07:22.729Z,0.25
2023-05-08T15:09:53.383Z,0.30
2023-05-08T15:12:22.857Z,0.30
2023-05-08T15:14:52.465Z,0.55
2023-05-08T15:17:22.058Z,0.30
2023-05-08T15:19:51.515Z,0.22
2023-05-08T15:22:22.594Z,0.30
2023-05-08T15:24:52.116Z,0.20
2023-05-08T15:27:21.896Z,0.30
2023-05-08T15:29:51.996Z,0.30
2023-05-08T15:32:21.534Z,0.30
2023-05-08T15:34:51.094Z,0.20
2023-05-08T15:37:22.028Z,0.80
2023-05-08T15:39:51.731Z,0.50
2023-05-08T15:42:22.046Z,0.20
2023-05-08T15:44:55.020Z,0.40
2023-05-08T15:50:44.080Z,1.20
2023-05-08T15:53:14.326Z,1.08
2023-05-08T15:55:43.802Z,1.33
2023-05-08T15:58:13.284Z,2.20
2023-05-08T16:00:45.203Z,2.13
2023-05-08T16:05:46.341Z,2.20
2023-05-08T16:08:16.048Z,2.78
2023-05-08T16:10:45.507Z,2.45
2023-05-08T16:13:15.005Z,2.55
2023-05-08T16:15:44.521Z,2.15
2023-05-08T16:18:14.105Z,2.90
2023-05-08T16:20:45.356Z,3.20
2023-05-08T16:23:15.346Z,3.88
2023-05-08T16:25:44.951Z,4.55
2023-05-08T16:28:14.602Z,3.58
2023-05-08T16:30:44.283Z,4.22
2023-05-08T16:33:13.951Z,4.15
2023-05-08T16:35:45.107Z,4.03
2023-05-08T16:38:14.864Z,4.53
2023-05-08T16:40:45.321Z,4.68
2023-05-08T16:43:15.005Z,5.38
2023-05-08T16:45:44.641Z,4.32
2023-05-08T16:48:14.268Z,6.65
2023-05-08T16:50:45.297Z,5.30
2023-05-08T16:53:15.896Z,6.00
2023-05-08T16:55:45.545Z,6.45
2023-05-08T16:58:16.157Z,6.00
2023-05-08T17:00:46.193Z,6.47
2023-05-08T17:03:15.916Z,6.55
2023-05-08T17:05:46.961Z,7.22
2023-05-08T17:08:16.515Z,7.07
2023-05-08T17:10:45.997Z,7.38
2023-05-08T17:13:15.630Z,7.03
2023-05-08T17:15:45.482Z,6.93
2023-05-08T17:18:15.184Z,7.03
2023-05-08T17:20:46.075Z,7.00
2023-05-08T17:23:15.586Z,9.38
2023-05-08T17:25:45.092Z,8.02
2023-05-08T17:28:14.699Z,7.65
2023-05-08T17:30:45.830Z,6.47
2023-05-08T17:33:15.913Z,6.23
2023-05-08T17:35:46.835Z,6.55
2023-05-08T17:38:16.304Z,6.18
2023-05-08T17:40:45.926Z,5.50
2023-05-08T17:43:15.518Z,5.40
2023-05-08T17:45:45.757Z,5.50
2023-05-08T17:48:15.334Z,5.32
2023-05-08T17:50:47.567Z,5.47
2023-05-08T17:53:17.067Z,5.82
2023-05-08T17:55:46.459Z,5.38
2023-05-08T17:58:16.072Z,6.15
2023-05-08T18:00:45.457Z,6.05
2023-05-08T18:03:15.186Z,5.50
2023-05-08T18:05:46.085Z,6.20
2023-05-08T18:08:15.688Z,5.10
2023-05-08T18:10:45.428Z,4.63
2023-05-08T18:13:16.027Z,4.68
2023-05-08T18:15:45.596Z,5.50
2023-05-08T18:18:15.938Z,4.57
2023-05-08T18:20:46.677Z,5.40
2023-05-08T18:23:16.337Z,5.30
2023-05-08T18:25:45.889Z,4.88
2023-05-08T18:28:17.134Z,5.22
2023-05-08T18:30:46.700Z,5.32
2023-05-08T18:33:16.377Z,5.97
2023-05-08T18:35:47.477Z,5.60
2023-05-08T18:38:18.104Z,5.28
2023-05-08T18:40:47.729Z,6.22
2023-05-08T18:43:17.232Z,8.25
2023-05-08T18:45:46.837Z,8.55
2023-05-08T18:50:43.920Z,6.47
2023-05-08T18:53:14.780Z,6.18
2023-05-08T18:55:44.248Z,7.28
2023-05-08T18:58:15.090Z,6.05
2023-05-08T19:00:44.605Z,5.72
2023-05-08T19:03:14.178Z,5.25
2023-05-08T19:05:45.394Z,6.03
2023-05-08T19:08:16.216Z,4.88
2023-05-08T19:10:45.836Z,5.45
2023-05-08T19:13:15.363Z,6.13
2023-05-08T19:15:44.976Z,4.82
2023-05-08T19:18:15.088Z,5.63
2023-05-08T19:20:46.017Z,5.78
2023-05-08T19:23:17.581Z,5.13
2023-05-08T19:25:48.160Z,5.43
2023-05-08T19:28:17.752Z,4.70
2023-05-08T19:30:47.346Z,4.57
2023-05-08T19:33:20.769Z,4.55
2023-05-08T19:35:52.085Z,4.28
2023-05-08T19:38:21.592Z,4.82
2023-05-08T19:40:57.274Z,4.78
2023-05-08T19:43:28.056Z,4.45
2023-05-08T19:45:58.165Z,3.88
2023-05-08T19:48:27.690Z,4.30
2023-05-08T19:50:58.632Z,4.47
2023-05-08T19:53:28.313Z,3.90
2023-05-08T19:55:57.750Z,3.45
2023-05-08T19:58:27.285Z,3.33
2023-05-08T20:00:56.707Z,3.00
2023-05-08T20:03:26.229Z,3.58
2023-05-08T20:05:57.572Z,3.28
2023-05-08T20:08:27.189Z,3.20
2023-05-08T20:10:56.586Z,2.78
2023-05-08T20:13:26.234Z,3.05
2023-05-08T20:15:55.964Z,3.08
2023-05-08T20:18:25.543Z,2.95
2023-05-08T20:20:55.102Z,3.15
2023-05-08T20:23:26.206Z,3.10
2023-05-08T20:25:55.691Z,2.38
2023-05-08T20:28:26.344Z,3.33
2023-05-08T20:30:55.837Z,3.00
2023-05-08T20:33:25.385Z,2.55
2023-05-08T20:35:55.506Z,2.45
2023-05-08T20:38:26.376Z,1.85
2023-05-08T20:41:00.209Z,2.03
2023-05-08T20:43:30.498Z,2.95
2023-05-08T20:45:59.995Z,2.47
2023-05-08T20:48:29.618Z,2.38
2023-05-08T20:50:59.005Z,2.80
2023-05-08T20:53:29.762Z,2.55
2023-05-08T20:56:03.069Z,2.60
2023-05-08T20:58:32.596Z,2.17
2023-05-08T21:01:02.173Z,2.28
2023-05-08T21:03:31.598Z,2.05
2023-05-08T21:06:01.126Z,2.40
2023-05-08T21:08:32.184Z,2.63
2023-05-08T21:11:03.982Z,3.08
2023-05-08T21:13:33.481Z,3.90
2023-05-08T21:16:02.913Z,3.13
2023-05-08T21:18:32.402Z,2.78
2023-05-08T21:21:01.866Z,3.35
2023-05-08T21:23:32.905Z,3.50
2023-05-08T21:26:02.807Z,2.83
2023-05-08T21:28:32.338Z,3.08
2023-05-08T21:31:01.762Z,3.67
2023-05-08T21:33:31.361Z,3.35
2023-05-08T21:36:01.859Z,2.75
2023-05-08T21:38:32.780Z,2.00
2023-05-08T21:41:08.735Z,3.35
2023-05-08T21:43:38.997Z,2.97
2023-05-08T21:46:09.566Z,3.05
2023-05-08T21:50:43.688Z,3.05
2023-05-08T21:53:13.270Z,2.28
2023-05-08T21:55:42.745Z,2.88
2023-05-08T21:58:12.304Z,1.98
2023-05-08T22:00:42.286Z,2.65
2023-05-08T22:03:11.798Z,2.55
2023-05-08T22:05:42.747Z,2.38
2023-05-08T22:08:12.265Z,2.50
2023-05-08T22:10:44.402Z,1.88
2023-05-08T22:13:14.920Z,2.58
2023-05-08T22:15:45.207Z,1.95
2023-05-08T22:18:14.867Z,2.63
2023-05-08T22:20:46.048Z,2.60
2023-05-08T22:23:15.529Z,2.50
2023-05-08T22:25:45.289Z,2.15
2023-05-08T22:28:14.797Z,2.42
2023-05-08T22:30:44.306Z,3.05
2023-05-08T22:33:13.858Z,2.30
2023-05-08T22:35:44.762Z,2.72
2023-05-08T22:38:14.340Z,2.75
2023-05-08T22:40:44.136Z,2.38
2023-05-08T22:43:13.735Z,2.40
2023-05-08T22:45:43.413Z,2.33
2023-05-08T22:48:12.950Z,2.40
2023-05-08T22:50:42.560Z,2.30
2023-05-08T22:53:13.461Z,2.63
2023-05-08T22:55:42.945Z,2.78
2023-05-08T22:58:12.384Z,2.42
2023-05-08T23:00:42.932Z,2.40
2023-05-08T23:03:12.405Z,2.28
2023-05-08T23:05:41.967Z,3.03
2023-05-08T23:08:12.854Z,2.55
2023-05-08T23:10:42.630Z,2.70
2023-05-08T23:13:12.271Z,2.50
2023-05-08T23:15:41.996Z,2.25
2023-05-08T23:18:11.561Z,2.63
2023-05-08T23:20:40.977Z,2.67
2023-05-08T23:23:11.902Z,2.30
2023-05-08T23:25:41.266Z,2.67
2023-05-08T23:28:10.700Z,1.83
2023-05-08T23:30:40.107Z,2.55
2023-05-08T23:33:09.758Z,2.28
2023-05-08T23:35:39.279Z,3.03
2023-05-08T23:38:08.817Z,2.85
2023-05-08T23:40:39.624Z,3.22
2023-05-08T23:43:09.196Z,3.03
2023-05-08T23:45:38.788Z,3.72
2023-05-08T23:48:08.742Z,2.92
2023-05-08T23:50:38.262Z,2.97
2023-05-08T23:53:07.724Z,3.22
2023-05-08T23:55:39.611Z,2.97
2023-05-08T23:58:09.068Z,3.03
